Lulu Pass Weather Station

This weather station provides temperature, relative humidity (RH), wind speed, gust or max wind speed, and wind direction at 10014ft near Lulu Pass at the head of Fisher Creek. This data can be used with temperature and precipitation data from the Fisher Creek SNOTEL site.

This weather station was purchased by the Friends of the Avalanche Center.

If the data has not been updated recently you can view it directly on datagarrison.com

Elevation
10014ft
Jump to table bottom
Date Time Temperature
deg F
RH, % Wind Speed Wind Gust Wind Direction
12/01/20 21:00 7.3 91 15 21 N - 341
12/01/20 20:00 8.5 91 16 24 N - 350
12/01/20 19:00 9.6 92 16 22 NW - 334
12/01/20 18:00 10.1 92 16 21 NW - 323
12/01/20 17:00 11.1 92 16 22 NW - 321
12/01/20 16:00 11.9 92 17 29 NW - 319
12/01/20 15:00 13.0 93 15 23 NW - 316
12/01/20 14:00 12.8 93 13 22 NW - 316
12/01/20 13:00 13.3 93 11 16 NW - 317
12/01/20 12:00 13.2 93 10 14 NW - 317
12/01/20 11:00 11.3 92 12 15 NW - 316
12/01/20 10:00 10.8 92 13 17 NW - 326
12/01/20 09:00 9.4 91 15 19 NW - 331
12/01/20 08:00 9.6 91 15 17 NW - 326
12/01/20 07:00 9.4 91 12 15 NW - 329
12/01/20 06:00 9.3 91 13 18 NW - 323
12/01/20 05:00 9.4 91 15 21 NW - 326
12/01/20 04:00 9.3 91 19 24 NW - 317
12/01/20 03:00 9.5 91 16 22 NW - 320
12/01/20 02:00 9.7 91 11 19 NW - 307
12/01/20 01:00 10.4 91 12 24 NW - 303
12/01/20 00:00 11.2 91 19 35 NW - 326
11/30/20 23:00 11.5 91 15 25 NW - 329
11/30/20 22:00 12.6 91 18 41 NW - 298
11/30/20 21:00 14.2 92 12 32 W - 264
11/30/20 20:00 14.5 91 17 35 SW - 241
11/30/20 19:00 16.5 72 13 32 W - 250
11/30/20 18:00 17.4 65 25 48 SW - 215
11/30/20 17:00 19.2 58 9 24 W - 274
11/30/20 16:00 20.7 52 9 29 SW - 247
11/30/20 15:00 20.7 47 10 24 SW - 239
11/30/20 14:00 19.8 45 18 39 SW - 220
11/30/20 13:00 19.2 40 19 34 SW - 216
11/30/20 12:00 19.6 31 22 41 SW - 212
11/30/20 11:00 17.6 36 16 31 SW - 219
11/30/20 10:00 17.8 34 22 37 SW - 212
11/30/20 09:00 17.5 29 21 35 SW - 212
11/30/20 08:00 18.2 26 18 37 SW - 212
11/30/20 07:00 18.8 22 10 24 SW - 212
11/30/20 06:00 19.4 20 5 19 E - 79
11/30/20 05:00 19.5 20 5 15 NW - 293
11/30/20 04:00 20.0 21 8 14 SW - 222
11/30/20 03:00 19.2 23 7 16 N - 345
11/30/20 02:00 17.8 27 10 18 N - 352
11/30/20 01:00 19.1 25 6 13 NW - 321
11/30/20 00:00 16.5 29 4 10 W - 281
11/29/20 23:00 18.0 31 6 12 NW - 309
11/29/20 22:00 14.9 40 5 9 NW - 316
11/29/20 21:00 16.7 51 7 13 SW - 241
11/29/20 20:00 16.9 53 6 12 SW - 247